createdAt,value
2023-01-11T00:00:49.742Z,86.10
2023-01-11T00:03:17.564Z,86.60
2023-01-11T00:05:45.408Z,86.80
2023-01-11T00:08:12.624Z,85.90
2023-01-11T00:10:40.377Z,84.30
2023-01-11T00:13:07.604Z,82.60
2023-01-11T00:15:36.873Z,82.80
2023-01-11T00:18:03.816Z,83.20
2023-01-11T00:20:31.030Z,82.70
2023-01-11T00:22:58.295Z,82.40
2023-01-11T00:25:25.330Z,83.30
2023-01-11T00:27:52.312Z,83.60
2023-01-11T00:30:19.190Z,84.10
2023-01-11T00:32:46.689Z,84.40
2023-01-11T00:35:13.949Z,84.60
2023-01-11T00:37:41.053Z,84.00
2023-01-11T00:40:09.104Z,82.40
2023-01-11T00:42:54.689Z,81.90
2023-01-11T00:45:40.459Z,81.30
2023-01-11T00:48:09.768Z,82.20
2023-01-11T00:50:38.963Z,83.00
2023-01-11T00:53:06.902Z,82.20
2023-01-11T00:55:34.269Z,82.90
2023-01-11T00:58:01.557Z,83.10
2023-01-11T01:00:29.289Z,82.00
2023-01-11T01:02:56.888Z,82.20
2023-01-11T01:05:23.773Z,81.40
2023-01-11T01:07:50.694Z,80.70
2023-01-11T01:10:18.708Z,81.70
2023-01-11T01:13:05.041Z,81.70
2023-01-11T01:15:32.749Z,80.30
2023-01-11T01:17:59.779Z,79.90
2023-01-11T01:20:28.324Z,80.20
2023-01-11T01:22:55.333Z,80.20
2023-01-11T01:25:22.182Z,80.60
2023-01-11T01:27:49.152Z,80.50
2023-01-11T01:30:18.594Z,80.30
2023-01-11T01:32:45.471Z,80.30
2023-01-11T01:35:12.347Z,80.40
2023-01-11T01:37:39.396Z,82.40
2023-01-11T01:40:07.570Z,82.60
2023-01-11T01:42:35.547Z,81.60
2023-01-11T01:45:10.116Z,81.00
2023-01-11T01:47:46.054Z,79.30
2023-01-11T01:50:40.603Z,80.30
2023-01-11T01:53:17.577Z,80.40
2023-01-11T01:55:52.183Z,79.20
2023-01-11T01:58:25.250Z,77.50
2023-01-11T02:00:52.298Z,77.00
2023-01-11T02:03:23.628Z,77.10
2023-01-11T02:05:52.186Z,75.80
2023-01-11T02:08:37.223Z,76.60
2023-01-11T02:11:27.718Z,77.00
2023-01-11T02:13:56.119Z,77.70
2023-01-11T02:16:23.104Z,78.80
2023-01-11T02:18:50.053Z,80.20
2023-01-11T02:21:30.540Z,80.50
2023-01-11T02:24:33.050Z,81.20
2023-01-11T02:27:18.765Z,81.60
2023-01-11T02:30:23.331Z,81.70
2023-01-11T02:33:49.174Z,80.90
2023-01-11T02:36:28.861Z,80.40
2023-01-11T02:39:24.144Z,80.50
2023-01-11T02:42:34.109Z,80.60
2023-01-11T02:45:50.744Z,81.50
2023-01-11T02:49:08.341Z,82.10
2023-01-11T02:51:48.944Z,82.90
2023-01-11T02:54:21.458Z,83.60
2023-01-11T02:56:52.437Z,85.20
2023-01-11T02:59:23.281Z,86.50
2023-01-11T03:01:53.623Z,88.20
2023-01-11T03:04:25.741Z,90.00
2023-01-11T03:07:14.012Z,91.60
2023-01-11T03:09:55.065Z,93.00
2023-01-11T03:12:55.338Z,93.50
2023-01-11T03:16:03.609Z,93.80
2023-01-11T03:18:51.766Z,94.30
2023-01-11T03:21:35.983Z,94.00
2023-01-11T03:24:29.304Z,93.80
2023-01-11T03:27:35.214Z,93.30
2023-01-11T03:30:08.216Z,93.20
2023-01-11T03:32:50.262Z,93.10
2023-01-11T03:35:48.329Z,93.70
2023-01-11T03:38:31.528Z,94.40
2023-01-11T03:41:05.146Z,94.90
2023-01-11T03:43:35.664Z,94.80
2023-01-11T03:46:10.472Z,94.80
2023-01-11T03:48:44.821Z,95.00
2023-01-11T03:51:15.297Z,95.90
2023-01-11T03:53:46.727Z,96.00
2023-01-11T03:56:16.843Z,97.20
2023-01-11T03:58:44.466Z,99.20
2023-01-11T04:01:13.097Z,99.90
2023-01-11T04:03:40.153Z,99.90
2023-01-11T04:06:10.797Z,99.90
2023-01-11T04:08:37.760Z,99.90
2023-01-11T04:11:05.324Z,99.90
2023-01-11T04:13:34.147Z,99.90
2023-01-11T04:16:01.281Z,99.90
2023-01-11T04:18:28.307Z,99.90
2023-01-11T04:20:55.381Z,99.90
2023-01-11T04:23:22.346Z,99.90
2023-01-11T04:25:53.385Z,99.90
2023-01-11T04:28:20.280Z,99.90
2023-01-11T04:30:47.461Z,99.90
2023-01-11T04:33:15.628Z,99.90
2023-01-11T04:35:44.248Z,99.90
2023-01-11T04:38:11.263Z,99.90
2023-01-11T04:40:38.276Z,99.90
2023-01-11T04:43:05.193Z,99.90
2023-01-11T04:45:32.388Z,99.90
2023-01-11T04:47:59.431Z,99.90
2023-01-11T04:50:27.545Z,99.90
2023-01-11T04:52:54.606Z,99.90
2023-01-11T04:55:21.656Z,99.90
2023-01-11T04:57:48.501Z,99.90
2023-01-11T05:00:16.319Z,99.90
2023-01-11T05:02:43.312Z,99.90
2023-01-11T05:05:11.649Z,99.90
2023-01-11T05:07:39.396Z,99.90
2023-01-11T05:10:07.779Z,99.90
2023-01-11T05:12:34.647Z,99.90
2023-01-11T05:15:01.595Z,99.90
2023-01-11T05:17:28.459Z,99.90
2023-01-11T05:19:55.355Z,99.90
2023-01-11T05:22:22.220Z,99.90
2023-01-11T05:24:50.350Z,99.90
2023-01-11T05:27:19.564Z,99.90
2023-01-11T05:29:46.438Z,99.90
2023-01-11T05:32:13.452Z,99.90
2023-01-11T05:34:40.328Z,99.90
2023-01-11T05:37:07.278Z,99.90
2023-01-11T05:39:34.179Z,99.90
2023-01-11T05:42:01.068Z,99.90
2023-01-11T05:44:46.687Z,99.90
2023-01-11T05:47:13.608Z,99.90
2023-01-11T05:49:53.010Z,99.90
2023-01-11T05:52:20.685Z,99.90
2023-01-11T05:54:47.591Z,99.90
2023-01-11T05:57:18.584Z,99.90
2023-01-11T05:59:45.496Z,99.90
2023-01-11T06:02:12.663Z,99.90
2023-01-11T06:04:39.731Z,99.90
2023-01-11T06:07:06.936Z,99.90
2023-01-11T06:09:33.875Z,99.90
2023-01-11T06:12:00.822Z,99.90
2023-01-11T06:14:27.727Z,99.90
2023-01-11T06:16:54.955Z,99.90
2023-01-11T06:19:21.954Z,99.90
2023-01-11T06:21:48.838Z,99.90
2023-01-11T06:24:16.150Z,99.90
2023-01-11T06:26:43.091Z,99.90
2023-01-11T06:29:10.006Z,99.90
2023-01-11T06:31:36.904Z,99.90
2023-01-11T06:34:03.799Z,99.90
2023-01-11T06:36:30.752Z,99.90
2023-01-11T06:38:57.643Z,99.90
2023-01-11T06:41:25.883Z,99.90
2023-01-11T06:43:53.495Z,99.90
2023-01-11T06:46:20.680Z,99.90
2023-01-11T06:48:47.951Z,99.90
2023-01-11T06:51:16.779Z,99.90
2023-01-11T06:53:44.505Z,99.90
2023-01-11T06:56:13.606Z,99.90
2023-01-11T06:58:41.002Z,99.90
2023-01-11T07:01:08.365Z,99.90
2023-01-11T07:03:35.500Z,99.90
2023-01-11T07:06:02.758Z,99.90
2023-01-11T07:08:29.752Z,99.90
2023-01-11T07:10:59.103Z,99.90
2023-01-11T07:13:25.980Z,99.90
2023-01-11T07:15:54.471Z,99.90
2023-01-11T07:18:21.829Z,99.90
2023-01-11T07:20:50.250Z,99.90
2023-01-11T07:23:17.195Z,99.90
2023-01-11T07:25:44.051Z,99.90
2023-01-11T07:28:10.982Z,99.90
2023-01-11T07:33:27.987Z,99.90
2023-01-11T07:35:55.054Z,99.90
2023-01-11T07:38:24.740Z,99.90
2023-01-11T07:40:52.431Z,99.90
2023-01-11T07:43:21.575Z,99.90
2023-01-11T07:45:50.477Z,99.90
2023-01-11T07:48:26.237Z,99.90
2023-01-11T07:50:55.247Z,99.90
2023-01-11T07:53:26.651Z,99.90
2023-01-11T07:55:55.850Z,99.90
2023-01-11T07:58:25.833Z,99.90
2023-01-11T08:00:52.726Z,99.90
2023-01-11T08:03:19.785Z,99.90
2023-01-11T08:05:51.800Z,99.90
2023-01-11T08:08:18.758Z,99.90
2023-01-11T08:10:45.683Z,99.90
2023-01-11T08:13:32.698Z,99.90
2023-01-11T08:16:00.289Z,99.90
2023-01-11T08:18:27.384Z,99.90
2023-01-11T08:20:54.453Z,99.90
2023-01-11T08:23:21.375Z,99.90
2023-01-11T08:25:48.278Z,99.90
2023-01-11T08:28:15.212Z,99.90
2023-01-11T08:30:42.745Z,99.90
2023-01-11T08:33:12.795Z,99.90
2023-01-11T08:35:40.405Z,99.90
2023-01-11T08:38:08.192Z,99.90
2023-01-11T08:40:35.237Z,99.90
2023-01-11T08:43:02.295Z,99.90
2023-01-11T08:45:29.540Z,99.90
2023-01-11T08:47:56.534Z,99.90
2023-01-11T08:50:23.486Z,99.90
2023-01-11T08:52:51.907Z,99.90
2023-01-11T08:55:22.008Z,99.90
2023-01-11T08:57:48.979Z,99.90
2023-01-11T09:00:16.538Z,99.90
2023-01-11T09:02:48.758Z,99.90
2023-01-11T09:05:18.079Z,99.90
2023-01-11T09:07:45.513Z,99.90
2023-01-11T09:10:12.470Z,99.90
2023-01-11T09:12:39.370Z,99.90
2023-01-11T09:15:07.054Z,99.90
2023-01-11T09:17:34.313Z,99.90
2023-01-11T09:20:01.201Z,99.90
2023-01-11T09:22:28.048Z,99.90
2023-01-11T09:24:55.459Z,99.90
2023-01-11T09:27:23.637Z,99.90
2023-01-11T09:29:50.863Z,99.90
2023-01-11T09:32:19.590Z,99.90
2023-01-11T09:34:47.339Z,99.90
2023-01-11T09:37:16.765Z,99.90
2023-01-11T09:39:45.378Z,99.90
2023-01-11T09:42:34.124Z,99.90
2023-01-11T09:45:23.112Z,99.90
2023-01-11T09:47:53.895Z,99.90
2023-01-11T09:50:26.260Z,99.90
2023-01-11T09:53:08.045Z,99.90
2023-01-11T09:55:42.296Z,99.90
2023-01-11T09:58:42.759Z,99.90
2023-01-11T10:01:27.549Z,99.90
2023-01-11T10:04:33.119Z,99.90
2023-01-11T10:07:25.029Z,99.90
2023-01-11T10:18:28.491Z,99.90
2023-01-11T10:19:35.992Z,99.90
2023-01-11T10:22:15.798Z,99.90
2023-01-11T10:24:56.530Z,99.90
2023-01-11T10:27:36.679Z,99.90
2023-01-11T10:30:52.243Z,99.90
2023-01-11T10:34:13.252Z,99.90
2023-01-11T10:37:18.797Z,99.90
2023-01-11T10:40:21.366Z,99.90
2023-01-11T10:43:03.925Z,99.90
2023-01-11T10:45:45.563Z,99.90
2023-01-11T10:48:34.481Z,99.90
2023-01-11T10:51:32.148Z,99.90
2023-01-11T10:54:24.261Z,99.90
2023-01-11T10:57:23.072Z,99.90
2023-01-11T11:00:24.830Z,99.90
2023-01-11T11:03:34.146Z,99.90
2023-01-11T11:06:48.697Z,99.90
2023-01-11T11:09:56.039Z,99.90
2023-01-11T11:12:30.474Z,99.90
2023-01-11T11:15:31.378Z,99.90
2023-01-11T11:17:58.463Z,99.90
2023-01-11T11:20:30.414Z,99.90
2023-01-11T11:22:57.910Z,99.90
2023-01-11T11:25:34.445Z,99.90
2023-01-11T11:28:24.351Z,99.90
2023-01-11T11:31:00.015Z,99.90
2023-01-11T11:33:36.427Z,99.90
2023-01-11T11:36:09.409Z,99.90
2023-01-11T11:38:39.625Z,99.90
2023-01-11T11:41:12.717Z,99.90
2023-01-11T11:43:45.631Z,94.80
2023-01-11T11:46:22.782Z,90.80
2023-01-11T11:49:26.668Z,79.00
2023-01-11T11:51:54.487Z,82.90
2023-01-11T11:54:43.433Z,85.00
2023-01-11T11:57:28.103Z,81.80
2023-01-11T12:00:22.996Z,85.50
2023-01-11T12:02:53.698Z,81.50
2023-01-11T12:05:20.702Z,82.90
2023-01-11T12:07:55.082Z,80.30
2023-01-11T12:10:28.157Z,82.80
2023-01-11T12:12:59.947Z,83.00
2023-01-11T12:15:29.574Z,81.80
2023-01-11T12:18:23.064Z,80.40
2023-01-11T12:20:49.975Z,79.00
2023-01-11T12:23:25.092Z,76.80
2023-01-11T12:26:24.481Z,80.40
2023-01-11T12:29:49.437Z,72.60
2023-01-11T12:32:45.136Z,69.00
2023-01-11T12:36:01.311Z,71.40
2023-01-11T12:39:08.250Z,59.70
2023-01-11T12:42:06.254Z,57.20
2023-01-11T12:44:56.670Z,57.90
2023-01-11T12:47:43.205Z,61.90
2023-01-11T12:50:44.881Z,65.30
2023-01-11T12:53:40.102Z,66.90
2023-01-11T12:56:58.026Z,65.00
2023-01-11T13:00:18.572Z,66.10
2023-01-11T13:02:59.476Z,67.80
2023-01-11T13:05:53.192Z,71.40
2023-01-11T13:08:41.745Z,71.40
2023-01-11T13:11:35.575Z,72.20
2023-01-11T13:14:31.791Z,75.10
2023-01-11T13:17:43.605Z,74.90
2023-01-11T13:21:08.922Z,76.60
2023-01-11T13:23:48.354Z,72.00
2023-01-11T13:26:41.533Z,64.30
2023-01-11T13:29:31.359Z,58.20
2023-01-11T13:32:02.642Z,51.40
2023-01-11T13:34:55.607Z,51.40
2023-01-11T13:37:40.404Z,48.50
2023-01-11T13:40:41.575Z,46.40
2023-01-11T13:43:42.021Z,40.50
2023-01-11T13:47:08.347Z,41.70
2023-01-11T13:56:14.071Z,33.60
2023-01-11T13:59:03.874Z,36.10
2023-01-11T14:05:14.404Z,31.70
2023-01-11T14:08:36.838Z,25.20
2023-01-11T14:23:55.176Z,21.20
2023-01-11T14:30:26.361Z,22.10
2023-01-11T14:33:21.292Z,21.20
2023-01-11T14:36:24.538Z,22.50
2023-01-11T14:39:07.944Z,19.50
2023-01-11T15:02:18.211Z,30.00
2023-01-11T15:19:10.784Z,31.10
2023-01-11T15:21:47.894Z,33.00
2023-01-11T15:24:32.763Z,33.00
2023-01-11T15:27:01.287Z,33.30
2023-01-11T15:29:45.868Z,36.30
2023-01-11T15:32:19.491Z,35.60
2023-01-11T15:34:48.188Z,35.60
2023-01-11T15:37:48.125Z,33.50
2023-01-11T15:40:26.908Z,35.50
2023-01-11T15:43:32.488Z,35.60
2023-01-11T15:46:54.431Z,35.10
2023-01-11T15:50:06.403Z,34.50
2023-01-11T15:53:00.620Z,34.60
2023-01-11T15:55:59.937Z,36.30
2023-01-11T15:58:52.336Z,37.30
2023-01-11T16:01:28.550Z,36.30
2023-01-11T16:04:26.600Z,37.20
2023-01-11T16:07:03.283Z,37.00
2023-01-11T16:10:15.959Z,38.70
2023-01-11T16:13:03.284Z,40.90
2023-01-11T16:16:05.751Z,42.90
2023-01-11T16:18:41.162Z,43.50
2023-01-11T16:21:18.764Z,44.40
2023-01-11T16:23:49.030Z,46.00
2023-01-11T16:26:19.597Z,48.40
2023-01-11T16:28:57.498Z,51.40
2023-01-11T16:31:25.727Z,50.00
2023-01-11T16:33:53.493Z,50.30
2023-01-11T16:36:23.429Z,49.80
2023-01-11T16:39:12.096Z,49.70
2023-01-11T16:41:46.926Z,47.10
2023-01-11T16:44:34.079Z,47.60
2023-01-11T16:47:14.255Z,47.80
2023-01-11T16:49:43.616Z,47.10
2023-01-11T16:52:38.112Z,47.70
2023-01-11T16:55:25.671Z,47.20
2023-01-11T16:57:57.264Z,49.40
2023-01-11T17:00:32.480Z,49.10
2023-01-11T17:03:18.674Z,49.90
2023-01-11T17:05:57.560Z,50.60
2023-01-11T17:08:33.068Z,53.10
2023-01-11T17:11:23.039Z,55.40
2023-01-11T17:14:36.965Z,59.30
2023-01-11T17:17:07.345Z,63.70
2023-01-11T17:19:37.517Z,65.50
2023-01-11T17:22:27.211Z,67.40
2023-01-11T17:25:00.004Z,68.10
2023-01-11T17:27:38.094Z,68.90
2023-01-11T17:30:13.235Z,69.60
2023-01-11T17:32:45.881Z,70.20
2023-01-11T17:35:31.592Z,71.50
2023-01-11T17:38:01.666Z,70.90
2023-01-11T17:40:40.429Z,71.40
2023-01-11T17:43:38.923Z,72.20
2023-01-11T17:46:07.578Z,70.50
2023-01-11T17:48:35.050Z,70.70
2023-01-11T17:51:03.974Z,67.00
2023-01-11T17:53:33.067Z,66.40
2023-01-11T17:56:05.725Z,64.60
2023-01-11T17:58:39.166Z,65.40
2023-01-11T18:01:20.465Z,63.10
2023-01-11T18:03:53.576Z,62.30
2023-01-11T18:06:41.726Z,62.80
2023-01-11T18:09:39.190Z,61.90
2023-01-11T18:12:27.469Z,57.20
2023-01-11T18:15:04.789Z,56.80
2023-01-11T18:17:40.173Z,56.50
2023-01-11T18:20:37.669Z,57.20
2023-01-11T18:23:23.286Z,56.10
2023-01-11T18:26:11.068Z,57.50
2023-01-11T18:28:38.359Z,58.50
2023-01-11T18:31:05.552Z,58.30
2023-01-11T18:33:34.117Z,56.70
2023-01-11T18:36:03.948Z,55.30
2023-01-11T18:38:34.091Z,55.50
2023-01-11T18:41:26.066Z,52.50
2023-01-11T18:43:54.841Z,49.00
2023-01-11T18:46:21.849Z,49.00
2023-01-11T18:48:48.803Z,49.40
2023-01-11T18:51:36.820Z,48.30
2023-01-11T18:54:05.851Z,50.80
2023-01-11T18:56:32.712Z,49.00
2023-01-11T18:59:00.166Z,48.40
2023-01-11T19:01:27.302Z,50.80
2023-01-11T19:03:54.300Z,49.80
2023-01-11T19:06:22.759Z,49.70
2023-01-11T19:08:51.161Z,48.10
2023-01-11T19:11:18.113Z,45.80
2023-01-11T19:13:46.868Z,44.60
2023-01-11T19:16:14.825Z,44.00
2023-01-11T19:18:41.756Z,44.50
2023-01-11T19:21:14.028Z,44.00
2023-01-11T19:23:41.611Z,43.00
2023-01-11T19:26:09.709Z,40.90
2023-01-11T19:28:37.636Z,40.60
2023-01-11T19:31:09.428Z,40.70
2023-01-11T19:33:36.543Z,41.80
2023-01-11T19:36:10.296Z,42.90
2023-01-11T19:38:37.547Z,43.60
2023-01-11T19:41:10.373Z,42.20
2023-01-11T19:43:37.321Z,42.90
2023-01-11T19:46:04.480Z,43.30
2023-01-11T19:48:33.474Z,42.40
2023-01-11T19:51:08.601Z,42.80
2023-01-11T19:53:35.668Z,42.00
2023-01-11T19:56:08.321Z,42.50
2023-01-11T19:58:38.609Z,40.60
2023-01-11T20:01:10.862Z,40.70
2023-01-11T20:03:41.408Z,39.10
2023-01-11T20:06:09.115Z,38.00
2023-01-11T20:08:41.115Z,37.90
2023-01-11T20:11:09.845Z,36.10
2023-01-11T20:13:36.834Z,34.40
2023-01-11T20:16:09.269Z,32.60
2023-01-11T20:18:36.614Z,33.50
2023-01-11T20:21:06.556Z,33.70
2023-01-11T20:23:37.414Z,31.80
2023-01-11T20:26:07.138Z,32.40
2023-01-11T20:28:36.899Z,31.80
2023-01-11T20:31:07.247Z,32.00
2023-01-11T20:33:35.294Z,29.20
2023-01-11T20:36:18.468Z,31.10
2023-01-11T20:38:46.122Z,32.60
2023-01-11T20:41:35.143Z,33.40
2023-01-11T20:44:02.219Z,34.30
2023-01-11T20:46:29.326Z,35.70
2023-01-11T20:48:56.629Z,37.50
2023-01-11T20:51:23.740Z,38.30
2023-01-11T20:53:50.963Z,39.20
2023-01-11T20:56:17.894Z,37.90
2023-01-11T20:58:46.982Z,37.60
2023-01-11T21:01:16.771Z,36.00
2023-01-11T21:03:43.789Z,37.20
2023-01-11T21:06:13.195Z,35.20
2023-01-11T21:08:41.131Z,35.60
2023-01-11T21:11:12.468Z,33.60
2023-01-11T21:13:40.238Z,34.70
2023-01-11T21:16:16.787Z,34.00
2023-01-11T21:18:44.287Z,34.50
2023-01-11T21:21:16.249Z,32.60
2023-01-11T21:23:43.864Z,31.90
2023-01-11T21:26:18.741Z,31.60
2023-01-11T21:28:50.940Z,32.10
2023-01-11T21:31:18.349Z,31.70
2023-01-11T21:33:45.295Z,30.90
2023-01-11T21:36:14.162Z,31.00
2023-01-11T21:38:41.055Z,30.50
2023-01-11T21:41:18.815Z,32.20
2023-01-11T21:43:45.913Z,34.60
2023-01-11T21:46:13.287Z,37.90
2023-01-11T21:48:40.303Z,46.80
2023-01-11T21:51:10.481Z,59.80
2023-01-11T21:53:37.936Z,72.60
2023-01-11T21:56:11.446Z,75.00
2023-01-11T21:58:41.191Z,78.60
2023-01-11T22:01:12.837Z,82.80
2023-01-11T22:03:42.320Z,84.00
2023-01-11T22:06:09.693Z,85.20
2023-01-11T22:08:39.611Z,88.40
2023-01-11T22:11:07.076Z,87.50
2023-01-11T22:13:35.652Z,90.60
2023-01-11T22:16:04.977Z,91.40
2023-01-11T22:18:32.681Z,91.10
2023-01-11T22:21:10.811Z,91.90
2023-01-11T22:23:38.076Z,93.20
2023-01-11T22:26:13.225Z,94.30
2023-01-11T22:28:59.442Z,93.30
2023-01-11T22:31:28.333Z,92.50
2023-01-11T22:33:56.617Z,90.50
2023-01-11T22:36:24.477Z,90.80
2023-01-11T22:38:54.247Z,91.20
2023-01-11T22:41:23.018Z,91.10
2023-01-11T22:43:50.300Z,90.60
2023-01-11T22:46:22.524Z,92.30
2023-01-11T22:48:50.555Z,94.00
2023-01-11T22:51:20.180Z,95.80
2023-01-11T22:53:48.908Z,95.50
2023-01-11T22:56:20.271Z,96.80
2023-01-11T22:58:48.270Z,96.90
2023-01-11T23:01:20.922Z,97.20
2023-01-11T23:03:49.089Z,95.80
2023-01-11T23:06:18.884Z,96.00
2023-01-11T23:08:45.885Z,95.20
2023-01-11T23:11:50.964Z,95.90
2023-01-11T23:14:19.811Z,94.40
2023-01-11T23:16:48.422Z,91.30
2023-01-11T23:19:18.890Z,91.30
2023-01-11T23:21:46.871Z,92.40
2023-01-11T23:24:15.987Z,91.10
2023-01-11T23:26:43.783Z,91.30
2023-01-11T23:29:10.754Z,91.20
2023-01-11T23:31:37.840Z,91.30
2023-01-11T23:34:07.910Z,88.80
2023-01-11T23:36:37.813Z,88.70
2023-01-11T23:39:10.644Z,91.40
2023-01-11T23:41:55.987Z,93.70
2023-01-11T23:44:22.983Z,95.40
2023-01-11T23:47:09.209Z,98.00
2023-01-11T23:49:36.566Z,99.20
2023-01-11T23:52:03.873Z,99.90
2023-01-11T23:54:32.933Z,99.90
2023-01-11T23:57:01.385Z,99.90
2023-01-11T23:59:28.658Z,99.90
